Mumbai Express — V2AH1 — position and weather

sailwx.info

Track history (hours):
 
Tides and Currents Weather Stations Pressure Air Temp Water Temp Dewpoint Dewpoint Depression Visibility Wind Speed Wind Dir Waves Ship Positions

Mumbai Express

Last reported at 2015-Mar-31 10:23 UTC. Time now 2015-Apr-01 05:48 UTC.
Position N 50°02' W 002°42'.

Length 260.7 m; beam 32.3 m; draft 12.5 m.

Type: Ship. MMSI: 304010914.

Date/timePositionNaut miles runAvg speedWind from/ knotsBaromVisibWave heightAir tempDewpointWater temp
2015-Mar-31 10:23N 50°02' W 002°42'3317.6
2015-Mar-31 08:31N 50°11' W 001°52'1915.6
2015-Mar-31 07:18N 50°15' W 001°24'2413.5
2015-Mar-31 05:32N 50°22' W 000°48'2713.7
2015-Mar-31 03:32N 50°29' W 000°06'1514.8
2015-Mar-31 02:30N 50°33' E 000°17'1515.4
2015-Mar-31 01:33N 50°39' E 000°38'1615.7
2015-Mar-31 00:33N 50°48' E 000°59'1515.2
2015-Mar-30 23:33N 50°58' E 001°17'1414.3
2015-Mar-30 22:34N 51°06' E 001°35'1515.1
2015-Mar-30 21:33N 51°18' E 001°50'1413.9
2015-Mar-30 20:33N 51°22' E 002°11'1616.0
2015-Mar-30 19:33N 51°22' E 002°37'1414.5
2015-Mar-30 18:34N 51°24' E 003°00'1717.3
2015-Mar-30 17:33N 51°25' E 003°28'9 9.4
2015-Mar-30 16:33N 51°24' E 003°43'1212.1
2015-Mar-30 15:33N 51°25' E 004°02'1010.3
2015-Mar-30 14:34N 51°21' E 004°17'0 0.1
2015-Mar-30 13:34N 51°21' E 004°17'2 1.8
2015-Mar-30 12:33N 51°19' E 004°19'1 0.5
2015-Mar-30 11:31N 51°20' E 004°20'0 0.0
2015-Mar-30 10:33N 51°20' E 004°20'0 0.0
2015-Mar-30 09:33N 51°20' E 004°20'0 0.0
2015-Mar-30 08:32N 51°20' E 004°20'0 0.0
2015-Mar-30 07:32N 51°20' E 004°20'0 0.0
2015-Mar-30 06:32N 51°20' E 004°20'0 0.0
2015-Mar-30 05:31N 51°20' E 004°20'0 0.0
2015-Mar-30 04:33N 51°20' E 004°20'0 0.0
2015-Mar-30 03:21N 51°20' E 004°20'0 0.0
2015-Mar-30 02:30N 51°20' E 004°20'0 0.0
2015-Mar-30 01:26N 51°20' E 004°20'0 0.0
2015-Mar-30 00:32N 51°20' E 004°20'0 0.0
2015-Mar-29 23:32N 51°20' E 004°20'0 0.0
2015-Mar-29 22:31N 51°20' E 004°20'0 0.0
2015-Mar-29 21:25N 51°20' E 004°20'0 0.0
2015-Mar-29 20:23N 51°20' E 004°20'0 0.0
2015-Mar-29 19:27N 51°20' E 004°20'0 0.0
2015-Mar-29 18:32N 51°20' E 004°20'0 0.0
2015-Mar-29 17:26N 51°20' E 004°20'0 0.0
2015-Mar-29 16:29N 51°20' E 004°20'0 0.0
2015-Mar-29 15:28N 51°20' E 004°20'0 0.0
2015-Mar-29 14:22N 51°20' E 004°20'0 0.0
2015-Mar-29 13:30N 51°20' E 004°20'0 0.0
2015-Mar-29 12:30N 51°20' E 004°20'0 0.0
2015-Mar-29 11:32N 51°20' E 004°20'0 0.0
2015-Mar-29 10:32N 51°20' E 004°20'0 0.0
2015-Mar-29 09:25N 51°20' E 004°20'0 0.0
2015-Mar-29 08:31N 51°20' E 004°20'0 0.0
2015-Mar-29 07:28N 51°20' E 004°20'0 0.0
2015-Mar-29 06:33N 51°20' E 004°20'0 0.0
2015-Mar-29 05:33N 51°20' E 004°20'0 0.0
2015-Mar-29 04:29N 51°20' E 004°20'0 0.0
2015-Mar-29 03:32N 51°20' E 004°20'0 0.0
2015-Mar-29 02:31N 51°20' E 004°20'0 0.0
2015-Mar-29 01:31N 51°20' E 004°20'0 0.0
2015-Mar-29 00:22N 51°20' E 004°20'0 0.0
2015-Mar-28 23:33N 51°20' E 004°20'0 0.1
2015-Mar-28 22:33N 51°20' E 004°20'2 1.9
2015-Mar-28 21:34N 51°21' E 004°17'1 0.6
2015-Mar-28 20:34N 51°21' E 004°16'8 8.3
2015-Mar-28 19:33N 51°22' E 004°03'1111.4
2015-Mar-28 18:33N 51°22' E 003°45'1211.7
2015-Mar-28 17:33N 51°25' E 003°27'1717.1
2015-Mar-28 16:33N 51°27' E 002°60'1716.8
2015-Mar-28 15:33N 51°41' E 003°13'8 3.4
2015-Mar-28 13:11N 51°48' E 003°21'0 0.0
2015-Mar-28 10:31N 51°48' E 003°21'0 0.0
2015-Mar-28 08:24N 51°48' E 003°21'0 0.0
2015-Mar-28 05:29N 51°48' E 003°21'0 0.2
2015-Mar-28 04:28N 51°48' E 003°21'0 0.1
2015-Mar-28 03:33N 51°48' E 003°21'0 0.0
2015-Mar-28 02:31N 51°48' E 003°21'0 0.2
2015-Mar-28 01:33N 51°48' E 003°21'0 0.1
2015-Mar-28 00:21N 51°48' E 003°21'0 0.0
2015-Mar-27 23:31N 51°48' E 003°21'0 0.0
2015-Mar-27 18:15N 51°48' E 003°21'0 0.1
2015-Mar-27 17:30N 51°48' E 003°21'0 0.1
2015-Mar-27 14:04N 51°48' E 003°21'0 0.0
2015-Mar-27 12:31N 51°48' E 003°21'5 5.1
2015-Mar-27 11:29N 51°52' E 003°17'1413.2
2015-Mar-27 10:26N 52°03' E 003°30'1314.6
2015-Mar-27 09:33N 52°03' E 003°51'1010.2
2015-Mar-27 08:33N 51°58' E 004°05'1 1.1
2015-Mar-27 07:31N 51°58' E 004°04'0 0.0
2015-Mar-27 06:33N 51°58' E 004°04'0 0.0
2015-Mar-27 05:33N 51°58' E 004°04'0 0.0
2015-Mar-27 04:33N 51°58' E 004°04'0 0.0
2015-Mar-27 03:29N 51°58' E 004°04'0 0.0
2015-Mar-27 02:32N 51°58' E 004°04'0 0.0
2015-Mar-27 01:31N 51°58' E 004°04'0 0.0
2015-Mar-27 00:31N 51°58' E 004°04'0 0.0
2015-Mar-26 23:33N 51°58' E 004°04'0 0.0
2015-Mar-26 22:33N 51°58' E 004°04'0 0.0
2015-Mar-26 21:32N 51°58' E 004°04'0 0.0
2015-Mar-26 20:32N 51°58' E 004°04'0 0.0
2015-Mar-26 19:32N 51°58' E 004°04'0 0.1
2015-Mar-26 18:33N 51°58' E 004°04'5 4.7
2015-Mar-26 17:33N 52°00' E 003°57'1512.1
2015-Mar-26 16:21N 51°56' E 003°34'3 2.8
2015-Mar-26 15:11N 51°55' E 003°30'0 0.0
2015-Mar-26 14:04N 51°55' E 003°30'0 0.1
2015-Mar-26 13:28N 51°55' E 003°30'0 0.0
2015-Mar-26 12:22N 51°55' E 003°30'0 0.1
2015-Mar-26 11:33N 51°55' E 003°30'2 0.9
2015-Mar-26 09:33N 51°56' E 003°29'1410.8
2015-Mar-26 08:15N 51°53' E 003°07'3719.5
2015-Mar-26 06:22N 51°52' E 002°07'1518.9
2015-Mar-26 05:33N 51°50' E 001°43'1212.1
2015-Mar-26 04:33N 51°56' E 001°26'5 5.0
2015-Mar-26 03:33N 51°58' E 001°18'0 0.0
2015-Mar-26 02:29N 51°58' E 001°18'0 0.0
2015-Mar-26 01:32N 51°58' E 001°18'0 0.0
2015-Mar-26 00:31N 51°58' E 001°18'0 0.0
2015-Mar-25 23:31N 51°58' E 001°18'0 0.0
2015-Mar-25 22:34N 51°58' E 001°18'0 0.0
2015-Mar-25 21:33N 51°58' E 001°18'0 0.0
2015-Mar-25 20:33N 51°58' E 001°18'0 0.0
2015-Mar-25 19:32N 51°58' E 001°18'0 0.0
2015-Mar-25 18:32N 51°58' E 001°18'0 0.0
2015-Mar-25 17:31N 51°58' E 001°18'0 0.0
2015-Mar-25 16:31N 51°58' E 001°18'0 0.0
2015-Mar-25 15:33N 51°58' E 001°18'0 0.0
2015-Mar-25 14:33N 51°58' E 001°18'0 0.0
2015-Mar-25 13:33N 51°58' E 001°18'0 0.0
2015-Mar-25 12:32N 51°58' E 001°18'0 0.0
2015-Mar-25 11:32N 51°58' E 001°18'0 0.0
2015-Mar-25 10:31N 51°58' E 001°18'0 0.0
2015-Mar-25 09:31N 51°58' E 001°18'0 0.0
2015-Mar-25 08:33N 51°58' E 001°18'0 0.0
2015-Mar-25 07:33N 51°58' E 001°18'1 1.1
2015-Mar-25 06:33N 51°57' E 001°19'10 9.6
2015-Mar-25 05:33N 51°54' E 001°34'9 8.6
2015-Mar-25 04:33N 51°51' E 001°47'1110.5
2015-Mar-25 03:33N 51°41' E 001°49'1110.8
2015-Mar-25 02:33N 51°31' E 001°57'1110.6
2015-Mar-25 01:33N 51°20' E 001°58'1212.3
2015-Mar-25 00:33N 51°11' E 001°46'1313.3
2015-Mar-24 23:33N 50°60' E 001°33'  
2015-Mar-22 15:12N 39°23' W 009°51'1217.9
2015-Mar-22 14:33N 39°11' W 009°52'1818.0
2015-Mar-22 13:33N 38°54' W 009°52'1817.8
2015-Mar-22 12:33N 38°36' W 009°50'1818.0
2015-Mar-22 11:33N 38°18' W 009°44'1818.0
2015-Mar-22 10:33N 38°01' W 009°39'1818.2
2015-Mar-22 09:33N 37°43' W 009°33'1716.9
2015-Mar-22 08:33N 37°27' W 009°28'1615.7
2015-Mar-22 07:31N 37°11' W 009°24'1715.4
2015-Mar-22 06:24N 36°54' W 009°18'1315.0
2015-Mar-22 05:33N 36°45' W 009°07'1815.9
2015-Mar-22 04:25N 36°40' W 008°46'1815.7
2015-Mar-22 03:17N 36°33' W 008°25'1115.8
2015-Mar-22 02:33N 36°29' W 008°12'13314.6
2015-Mar-21 17:27N 35°59' W 005°31'1213.0
2015-Mar-21 16:33N 36°02' W 005°17'  
Track history (hours):
 
Tides and Currents Weather Stations Pressure Air Temp Water Temp Dewpoint Dewpoint Depression Visibility Wind Speed Wind Dir Waves Ship Positions

Mumbai Express

Last reported at 2015-Mar-31 10:23 UTC. Time now 2015-Apr-01 05:48 UTC.
Position N 50°02' W 002°42'.

Length 260.7 m; beam 32.3 m; draft 12.5 m.

Type: Ship. MMSI: 304010914.

Date/timePositionNaut miles runAvg speedWind from/ knotsBaromVisibWave heightAir tempDewpointWater temp
2015-Mar-31 10:23N 50°02' W 002°42'3317.6
2015-Mar-31 08:31N 50°11' W 001°52'1915.6
2015-Mar-31 07:18N 50°15' W 001°24'2413.5
2015-Mar-31 05:32N 50°22' W 000°48'2713.7
2015-Mar-31 03:32N 50°29' W 000°06'1514.8
2015-Mar-31 02:30N 50°33' E 000°17'1515.4
2015-Mar-31 01:33N 50°39' E 000°38'1615.7
2015-Mar-31 00:33N 50°48' E 000°59'1515.2
2015-Mar-30 23:33N 50°58' E 001°17'1414.3
2015-Mar-30 22:34N 51°06' E 001°35'1515.1
2015-Mar-30 21:33N 51°18' E 001°50'1413.9
2015-Mar-30 20:33N 51°22' E 002°11'1616.0
2015-Mar-30 19:33N 51°22' E 002°37'1414.5
2015-Mar-30 18:34N 51°24' E 003°00'1717.3
2015-Mar-30 17:33N 51°25' E 003°28'9 9.4
2015-Mar-30 16:33N 51°24' E 003°43'1212.1
2015-Mar-30 15:33N 51°25' E 004°02'1010.3
2015-Mar-30 14:34N 51°21' E 004°17'0 0.1
2015-Mar-30 13:34N 51°21' E 004°17'2 1.8
2015-Mar-30 12:33N 51°19' E 004°19'1 0.5
2015-Mar-30 11:31N 51°20' E 004°20'0 0.0
2015-Mar-30 10:33N 51°20' E 004°20'0 0.0
2015-Mar-30 09:33N 51°20' E 004°20'0 0.0
2015-Mar-30 08:32N 51°20' E 004°20'0 0.0
2015-Mar-30 07:32N 51°20' E 004°20'0 0.0
2015-Mar-30 06:32N 51°20' E 004°20'0 0.0
2015-Mar-30 05:31N 51°20' E 004°20'0 0.0
2015-Mar-30 04:33N 51°20' E 004°20'0 0.0
2015-Mar-30 03:21N 51°20' E 004°20'0 0.0
2015-Mar-30 02:30N 51°20' E 004°20'0 0.0
2015-Mar-30 01:26N 51°20' E 004°20'0 0.0
2015-Mar-30 00:32N 51°20' E 004°20'0 0.0
2015-Mar-29 23:32N 51°20' E 004°20'0 0.0
2015-Mar-29 22:31N 51°20' E 004°20'0 0.0
2015-Mar-29 21:25N 51°20' E 004°20'0 0.0
2015-Mar-29 20:23N 51°20' E 004°20'0 0.0
2015-Mar-29 19:27N 51°20' E 004°20'0 0.0
2015-Mar-29 18:32N 51°20' E 004°20'0 0.0
2015-Mar-29 17:26N 51°20' E 004°20'0 0.0
2015-Mar-29 16:29N 51°20' E 004°20'0 0.0
2015-Mar-29 15:28N 51°20' E 004°20'0 0.0
2015-Mar-29 14:22N 51°20' E 004°20'0 0.0
2015-Mar-29 13:30N 51°20' E 004°20'0 0.0
2015-Mar-29 12:30N 51°20' E 004°20'0 0.0
2015-Mar-29 11:32N 51°20' E 004°20'0 0.0
2015-Mar-29 10:32N 51°20' E 004°20'0 0.0
2015-Mar-29 09:25N 51°20' E 004°20'0 0.0
2015-Mar-29 08:31N 51°20' E 004°20'0 0.0
2015-Mar-29 07:28N 51°20' E 004°20'0 0.0
2015-Mar-29 06:33N 51°20' E 004°20'0 0.0
2015-Mar-29 05:33N 51°20' E 004°20'0 0.0
2015-Mar-29 04:29N 51°20' E 004°20'0 0.0
2015-Mar-29 03:32N 51°20' E 004°20'0 0.0
2015-Mar-29 02:31N 51°20' E 004°20'0 0.0
2015-Mar-29 01:31N 51°20' E 004°20'0 0.0
2015-Mar-29 00:22N 51°20' E 004°20'0 0.0
2015-Mar-28 23:33N 51°20' E 004°20'0 0.1
2015-Mar-28 22:33N 51°20' E 004°20'2 1.9
2015-Mar-28 21:34N 51°21' E 004°17'1 0.6
2015-Mar-28 20:34N 51°21' E 004°16'8 8.3
2015-Mar-28 19:33N 51°22' E 004°03'1111.4
2015-Mar-28 18:33N 51°22' E 003°45'1211.7
2015-Mar-28 17:33N 51°25' E 003°27'1717.1
2015-Mar-28 16:33N 51°27' E 002°60'1716.8
2015-Mar-28 15:33N 51°41' E 003°13'8 3.4
2015-Mar-28 13:11N 51°48' E 003°21'0 0.0
2015-Mar-28 10:31N 51°48' E 003°21'0 0.0
2015-Mar-28 08:24N 51°48' E 003°21'0 0.0
2015-Mar-28 05:29N 51°48' E 003°21'0 0.2
2015-Mar-28 04:28N 51°48' E 003°21'0 0.1
2015-Mar-28 03:33N 51°48' E 003°21'0 0.0
2015-Mar-28 02:31N 51°48' E 003°21'0 0.2
2015-Mar-28 01:33N 51°48' E 003°21'0 0.1
2015-Mar-28 00:21N 51°48' E 003°21'0 0.0
2015-Mar-27 23:31N 51°48' E 003°21'0 0.0
2015-Mar-27 18:15N 51°48' E 003°21'0 0.1
2015-Mar-27 17:30N 51°48' E 003°21'0 0.1
2015-Mar-27 14:04N 51°48' E 003°21'0 0.0
2015-Mar-27 12:31N 51°48' E 003°21'5 5.1
2015-Mar-27 11:29N 51°52' E 003°17'1413.2
2015-Mar-27 10:26N 52°03' E 003°30'1314.6
2015-Mar-27 09:33N 52°03' E 003°51'1010.2
2015-Mar-27 08:33N 51°58' E 004°05'1 1.1
2015-Mar-27 07:31N 51°58' E 004°04'0 0.0
2015-Mar-27 06:33N 51°58' E 004°04'0 0.0
2015-Mar-27 05:33N 51°58' E 004°04'0 0.0
2015-Mar-27 04:33N 51°58' E 004°04'0 0.0
2015-Mar-27 03:29N 51°58' E 004°04'0 0.0
2015-Mar-27 02:32N 51°58' E 004°04'0 0.0
2015-Mar-27 01:31N 51°58' E 004°04'0 0.0
2015-Mar-27 00:31N 51°58' E 004°04'0 0.0
2015-Mar-26 23:33N 51°58' E 004°04'0 0.0
2015-Mar-26 22:33N 51°58' E 004°04'0 0.0
2015-Mar-26 21:32N 51°58' E 004°04'0 0.0
2015-Mar-26 20:32N 51°58' E 004°04'0 0.0
2015-Mar-26 19:32N 51°58' E 004°04'0 0.1
2015-Mar-26 18:33N 51°58' E 004°04'5 4.7
2015-Mar-26 17:33N 52°00' E 003°57'1512.1
2015-Mar-26 16:21N 51°56' E 003°34'3 2.8
2015-Mar-26 15:11N 51°55' E 003°30'0 0.0
2015-Mar-26 14:04N 51°55' E 003°30'0 0.1
2015-Mar-26 13:28N 51°55' E 003°30'0 0.0
2015-Mar-26 12:22N 51°55' E 003°30'0 0.1
2015-Mar-26 11:33N 51°55' E 003°30'2 0.9
2015-Mar-26 09:33N 51°56' E 003°29'1410.8
2015-Mar-26 08:15N 51°53' E 003°07'3719.5
2015-Mar-26 06:22N 51°52' E 002°07'1518.9
2015-Mar-26 05:33N 51°50' E 001°43'1212.1
2015-Mar-26 04:33N 51°56' E 001°26'5 5.0
2015-Mar-26 03:33N 51°58' E 001°18'0 0.0
2015-Mar-26 02:29N 51°58' E 001°18'0 0.0
2015-Mar-26 01:32N 51°58' E 001°18'0 0.0
2015-Mar-26 00:31N 51°58' E 001°18'0 0.0
2015-Mar-25 23:31N 51°58' E 001°18'0 0.0
2015-Mar-25 22:34N 51°58' E 001°18'0 0.0
2015-Mar-25 21:33N 51°58' E 001°18'0 0.0
2015-Mar-25 20:33N 51°58' E 001°18'0 0.0
2015-Mar-25 19:32N 51°58' E 001°18'0 0.0
2015-Mar-25 18:32N 51°58' E 001°18'0 0.0
2015-Mar-25 17:31N 51°58' E 001°18'0 0.0
2015-Mar-25 16:31N 51°58' E 001°18'0 0.0
2015-Mar-25 15:33N 51°58' E 001°18'0 0.0
2015-Mar-25 14:33N 51°58' E 001°18'0 0.0
2015-Mar-25 13:33N 51°58' E 001°18'0 0.0
2015-Mar-25 12:32N 51°58' E 001°18'0 0.0
2015-Mar-25 11:32N 51°58' E 001°18'0 0.0
2015-Mar-25 10:31N 51°58' E 001°18'0 0.0
2015-Mar-25 09:31N 51°58' E 001°18'0 0.0
2015-Mar-25 08:33N 51°58' E 001°18'0 0.0
2015-Mar-25 07:33N 51°58' E 001°18'1 1.1
2015-Mar-25 06:33N 51°57' E 001°19'10 9.6
2015-Mar-25 05:33N 51°54' E 001°34'9 8.6
2015-Mar-25 04:33N 51°51' E 001°47'1110.5
2015-Mar-25 03:33N 51°41' E 001°49'1110.8
2015-Mar-25 02:33N 51°31' E 001°57'1110.6
2015-Mar-25 01:33N 51°20' E 001°58'1212.3
2015-Mar-25 00:33N 51°11' E 001°46'1313.3
2015-Mar-24 23:33N 50°60' E 001°33'  
2015-Mar-22 15:12N 39°23' W 009°51'1217.9
2015-Mar-22 14:33N 39°11' W 009°52'1818.0
2015-Mar-22 13:33N 38°54' W 009°52'1817.8
2015-Mar-22 12:33N 38°36' W 009°50'1818.0
2015-Mar-22 11:33N 38°18' W 009°44'1818.0
2015-Mar-22 10:33N 38°01' W 009°39'1818.2
2015-Mar-22 09:33N 37°43' W 009°33'1716.9
2015-Mar-22 08:33N 37°27' W 009°28'1615.7
2015-Mar-22 07:31N 37°11' W 009°24'1715.4
2015-Mar-22 06:24N 36°54' W 009°18'1315.0
2015-Mar-22 05:33N 36°45' W 009°07'1815.9
2015-Mar-22 04:25N 36°40' W 008°46'1815.7
2015-Mar-22 03:17N 36°33' W 008°25'1115.8
2015-Mar-22 02:33N 36°29' W 008°12'13314.6
2015-Mar-21 17:27N 35°59' W 005°31'1213.0
2015-Mar-21 16:33N 36°02' W 005°17'  

Dump ship's entire track history